Time;durP1;ratioP1;P1;durP2;ratioP2;P2;SDS_P1;SDS_P2;PMS_P1;PMS_P2;Temp;Humidity;BMP_temperature;BMP_pressure;BME280_temperature;BME280_humidity;BME280_pressure;Samples;Min_cycle;Max_cycle;Signal;HPM_P1;HPM_P2
2023/01/06 00:01:18;;;;;;;;;;;;;;;;;;5076516;28;20039;-61
2023/01/06 00:03:50;;;;;;;1.92;1.80;;;;;;;;;;5075819;28;19919;-61
2023/01/06 00:06:15;;;;;;;2.75;2.20;;;;;;;;;;5075744;28;20024;-61
2023/01/06 00:08:41;;;;;;;2.17;1.90;;;;;;;;;;5076231;28;20524;-61
2023/01/06 00:11:12;;;;;;;2.80;2.10;;;;;;;;;;5075609;28;20480;-61
2023/01/06 00:13:38;;;;;;;2.97;2.30;;;;;;;;;;5075459;28;20025;-63
2023/01/06 00:16:10;;;;;;;2.67;2.35;;;;;;;;;;5075416;28;20028;-62
2023/01/06 00:18:37;;;;;;;2.53;2.10;;;;;;;;;;5075468;28;20060;-61
2023/01/06 00:21:03;;;;;;;2.70;2.13;;;;;;;;;;5075646;28;20394;-62
2023/01/06 00:23:29;;;;;;;3.97;2.10;;;;;;;;;;5075613;28;20086;-62
2023/01/06 00:25:54;;;;;;;2.53;2.20;;;;;;;;;;5075221;28;20024;-62
2023/01/06 00:28:20;;;;;;;3.60;2.40;;;;;;;;;;5075229;28;20043;-61
2023/01/06 00:30:45;;;;;;;2.10;1.70;;;;;;;;;;5075276;28;20058;-61
2023/01/06 00:33:11;;;;;;;2.47;2.10;;;;;;;;;;5075271;28;20353;-61
2023/01/06 00:35:36;;;;;;;2.78;1.90;;;;;;;;;;5074996;28;20024;-62
2023/01/06 00:38:02;;;;;;;2.38;1.90;;;;;;;;;;5075194;28;20035;-61
2023/01/06 00:40:28;;;;;;;2.25;1.80;;;;;;;;;;5075060;28;20028;-61
2023/01/06 00:42:53;;;;;;;2.72;1.83;;;;;;;;;;5074316;28;20083;-61
2023/01/06 00:45:19;;;;;;;2.42;1.95;;;;;;;;;;5073321;28;20032;-61
2023/01/06 00:47:44;;;;;;;3.75;1.90;;;;;;;;;;5074039;28;20052;-61
2023/01/06 00:50:10;;;;;;;2.45;1.80;;;;;;;;;;5073780;28;20017;-61
2023/01/06 00:52:35;;;;;;;3.53;2.10;;;;;;;;;;5073791;28;20017;-62
2023/01/06 00:55:01;;;;;;;2.72;2.10;;;;;;;;;;5073933;28;20377;-62
2023/01/06 00:57:27;;;;;;;2.28;1.85;;;;;;;;;;5073872;28;20132;-61
2023/01/06 00:59:52;;;;;;;2.70;1.90;;;;;;;;;;5073503;28;20453;-61
2023/01/06 01:02:18;;;;;;;1.98;1.77;;;;;;;;;;5073628;28;20095;-61
2023/01/06 01:04:43;;;;;;;2.65;2.10;;;;;;;;;;5055811;28;20067;-62
2023/01/06 01:07:09;;;;;;;2.33;2.10;;;;;;;;;;5073479;28;20032;-62
2023/01/06 01:09:35;;;;;;;3.20;2.30;;;;;;;;;;5073368;28;20020;-61
2023/01/06 01:12:10;;;;;;;2.80;1.98;;;;;;;;;;5073426;28;20028;-61
2023/01/06 01:14:43;;;;;;;2.53;1.85;;;;;;;;;;5073371;28;20099;-61
2023/01/06 01:17:10;;;;;;;3.17;2.13;;;;;;;;;;5073224;28;20028;-61
2023/01/06 01:19:37;;;;;;;2.30;1.90;;;;;;;;;;5073265;28;20480;-61
2023/01/06 01:22:03;;;;;;;1.80;1.70;;;;;;;;;;5073312;28;20032;-61
2023/01/06 01:24:29;;;;;;;3.15;2.42;;;;;;;;;;5074581;28;20025;-61
2023/01/06 01:26:55;;;;;;;2.50;1.92;;;;;;;;;;5073229;28;20456;-61
2023/01/06 01:29:22;;;;;;;2.10;1.80;;;;;;;;;;5073102;28;20020;-62
2023/01/06 01:31:47;;;;;;;2.85;2.17;;;;;;;;;;5073080;28;20460;-63
2023/01/06 01:34:15;;;;;;;2.45;2.00;;;;;;;;;;5073062;28;20036;-63
2023/01/06 01:36:42;;;;;;;2.03;1.83;;;;;;;;;;5072909;28;20021;-62
2023/01/06 01:39:08;;;;;;;2.22;1.80;;;;;;;;;;5072893;28;20372;-62
2023/01/06 01:41:33;;;;;;;2.10;1.83;;;;;;;;;;5072872;28;20020;-61
2023/01/06 01:44:02;;;;;;;2.38;2.05;;;;;;;;;;5025346;28;1384687;-62
2023/01/06 01:46:53;;;;;;;2.75;1.88;;;;;;;;;;5073753;28;20087;-62
2023/01/06 01:49:23;;;;;;;2.22;1.90;;;;;;;;;;5070733;28;20115;-63
2023/01/06 01:51:53;;;;;;;2.90;1.85;;;;;;;;;;5073826;28;20071;-62
2023/01/06 01:54:23;;;;;;;2.10;1.90;;;;;;;;;;5073708;28;20056;-61
2023/01/06 01:56:55;;;;;;;3.55;1.92;;;;;;;;;;5072786;28;20024;-61
2023/01/06 01:59:24;;;;;;;2.10;1.90;;;;;;;;;;5073562;28;20067;-61
2023/01/06 02:01:50;;;;;;;2.58;2.00;;;;;;;;;;5073773;28;20038;-61
2023/01/06 02:04:17;;;;;;;3.58;1.88;;;;;;;;;;5073679;28;20468;-61
2023/01/06 02:06:47;;;;;;;3.20;1.92;;;;;;;;;;5073409;28;20029;-61
2023/01/06 02:09:28;;;;;;;1.95;1.73;;;;;;;;;;5073398;28;20123;-61
2023/01/06 02:11:56;;;;;;;2.58;1.95;;;;;;;;;;5073215;28;20060;-61
2023/01/06 02:14:24;;;;;;;2.15;1.90;;;;;;;;;;5073319;28;20032;-63
2023/01/06 02:17:14;;;;;;;2.22;1.90;;;;;;;;;;5073105;28;20064;-63
2023/01/06 02:20:16;;;;;;;2.85;1.88;;;;;;;;;;5073195;28;20039;-61
2023/01/06 02:23:17;;;;;;;2.28;1.65;;;;;;;;;;5073042;28;20035;-62
2023/01/06 02:25:48;;;;;;;;;;;;;;;;;;5070280;28;20043;-61
2023/01/06 02:28:32;;;;;;;2.75;1.77;;;;;;;;;;5073091;28;19950;-63
2023/01/06 02:31:46;;;;;;;2.30;2.10;;;;;;;;;;5072928;28;20085;-63
2023/01/06 02:34:27;;;;;;;3.97;2.08;;;;;;;;;;5011009;28;20517;-63
2023/01/06 02:37:14;;;;;;;2.03;1.80;;;;;;;;;;5071628;28;20048;-62
2023/01/06 02:39:52;;;;;;;1.98;1.80;;;;;;;;;;5073204;28;20047;-62
2023/01/06 02:42:47;;;;;;;1.92;1.60;;;;;;;;;;5072561;28;20037;-61
2023/01/06 02:45:43;;;;;;;2.30;1.80;;;;;;;;;;5018026;28;20042;-61
2023/01/06 02:48:17;;;;;;;1.77;1.60;;;;;;;;;;5072983;28;20028;-61
2023/01/06 02:50:54;;;;;;;2.00;1.73;;;;;;;;;;5072594;28;20519;-61
2023/01/06 02:53:21;;;;;;;2.70;2.08;;;;;;;;;;5072753;28;20025;-61
2023/01/06 02:55:53;;;;;;;2.60;1.98;;;;;;;;;;5072387;28;20059;-61
2023/01/06 02:58:45;;;;;;;2.05;1.80;;;;;;;;;;5072621;28;20028;-61
2023/01/06 03:01:17;;;;;;;2.30;1.98;;;;;;;;;;5072500;28;20036;-62
2023/01/06 03:03:46;;;;;;;2.30;1.90;;;;;;;;;;5072551;28;20384;-62
2023/01/06 03:06:16;;;;;;;1.60;1.50;;;;;;;;;;5072573;28;20591;-62
2023/01/06 03:08:44;;;;;;;3.33;1.90;;;;;;;;;;5072320;28;20024;-61
2023/01/06 03:11:10;;;;;;;2.03;1.50;;;;;;;;;;5072409;28;20036;-62
2023/01/06 03:13:45;;;;;;;1.95;1.63;;;;;;;;;;5072415;28;20028;-62
2023/01/06 03:16:11;;;;;;;2.08;1.88;;;;;;;;;;5072214;28;20024;-61
2023/01/06 03:18:37;;;;;;;1.98;1.80;;;;;;;;;;5072431;28;20414;-61
2023/01/06 03:21:07;;;;;;;1.75;1.65;;;;;;;;;;5072342;28;20032;-61
2023/01/06 03:23:34;;;;;;;2.33;1.70;;;;;;;;;;5072207;28;20032;-61
2023/01/06 03:25:59;;;;;;;2.22;1.80;;;;;;;;;;5072257;28;20039;-61
2023/01/06 03:28:25;;;;;;;2.17;1.90;;;;;;;;;;5072187;28;20028;-61
2023/01/06 03:31:18;;;;;;;2.60;1.77;;;;;;;;;;5072523;28;20070;-61
2023/01/06 03:34:21;;;;;;;2.10;1.80;;;;;;;;;;5072054;28;20031;-63
2023/01/06 03:37:08;;;;;;;2.20;1.70;;;;;;;;;;5072341;28;20078;-61
2023/01/06 03:39:51;;;;;;;1.83;1.60;;;;;;;;;;5072370;28;20033;-61
2023/01/06 03:45:35;;;;;;;2.50;1.90;;;;;;;;;;5072229;28;20451;-61
2023/01/06 03:48:33;;;;;;;2.92;1.92;;;;;;;;;;5072028;28;20028;-63
2023/01/06 03:51:08;;;;;;;2.50;1.90;;;;;;;;;;5072071;28;20490;-64
2023/01/06 03:53:52;;;;;;;1.77;1.60;;;;;;;;;;5072034;28;20036;-62
2023/01/06 03:56:39;;;;;;;2.55;2.05;;;;;;;;;;5072241;28;20025;-62
2023/01/06 03:59:11;;;;;;;2.28;1.80;;;;;;;;;;5071899;28;20099;-62
2023/01/06 04:01:37;;;;;;;2.08;1.88;;;;;;;;;;5071887;28;20029;-62
2023/01/06 04:04:03;;;;;;;2.00;1.83;;;;;;;;;;5072114;28;20033;-62
2023/01/06 04:06:29;;;;;;;2.47;1.80;;;;;;;;;;5053872;28;20472;-62
2023/01/06 04:08:54;;;;;;;2.22;1.83;;;;;;;;;;5071860;28;20039;-62
2023/01/06 04:14:04;;;;;;;2.60;1.70;;;;;;;;;;5072197;28;20392;-61
2023/01/06 04:16:30;;;;;;;1.58;1.48;;;;;;;;;;5071945;28;20032;-61
2023/01/06 04:18:55;;;;;;;1.80;1.70;;;;;;;;;;5072035;28;20078;-61
2023/01/06 04:21:21;;;;;;;2.20;1.80;;;;;;;;;;5074982;28;20427;-61
2023/01/06 04:23:46;;;;;;;1.92;1.63;;;;;;;;;;5075380;28;20059;-61
2023/01/06 04:26:12;;;;;;;2.00;1.67;;;;;;;;;;5075229;28;20025;-61
2023/01/06 04:28:38;;;;;;;2.08;1.70;;;;;;;;;;5075303;28;20059;-61
2023/01/06 04:31:03;;;;;;;1.73;1.63;;;;;;;;;;5075142;28;20070;-61
2023/01/06 04:33:29;;;;;;;1.90;1.70;;;;;;;;;;5075249;28;20024;-61
2023/01/06 04:35:54;;;;;;;1.75;1.65;;;;;;;;;;5075308;28;20078;-61
2023/01/06 04:38:20;;;;;;;2.70;1.80;;;;;;;;;;5075369;28;20074;-61
2023/01/06 04:40:45;;;;;;;1.55;1.45;;;;;;;;;;5075005;28;20518;-61
2023/01/06 04:43:15;;;;;;;1.83;1.60;;;;;;;;;;5074986;28;20050;-61
2023/01/06 04:45:42;;;;;;;1.90;1.67;;;;;;;;;;5074873;28;20061;-63
2023/01/06 04:48:09;;;;;;;1.75;1.65;;;;;;;;;;5074960;28;20063;-61
2023/01/06 04:50:35;;;;;;;2.78;1.95;;;;;;;;;;5075008;28;20078;-62
2023/01/06 04:53:00;;;;;;;1.60;1.50;;;;;;;;;;5074901;28;20483;-64
2023/01/06 04:55:26;;;;;;;1.70;1.60;;;;;;;;;;5074709;28;20071;-63
2023/01/06 04:57:52;;;;;;;1.83;1.60;;;;;;;;;;5074972;28;20070;-61
2023/01/06 05:00:18;;;;;;;1.63;1.50;;;;;;;;;;5074642;28;20021;-62
2023/01/06 05:02:45;;;;;;;1.63;1.52;;;;;;;;;;5074698;28;20056;-61
2023/01/06 05:05:11;;;;;;;1.52;1.42;;;;;;;;;;5074856;28;20064;-62
2023/01/06 05:07:37;;;;;;;2.00;1.60;;;;;;;;;;5074370;28;20384;-63
2023/01/06 05:10:05;;;;;;;1.77;1.60;;;;;;;;;;5074107;28;20108;-65
2023/01/06 05:12:31;;;;;;;1.80;1.67;;;;;;;;;;5074150;28;20506;-62
2023/01/06 05:14:57;;;;;;;2.85;2.00;;;;;;;;;;5074261;28;20460;-61
2023/01/06 05:17:22;;;;;;;2.17;1.95;;;;;;;;;;5074194;28;20051;-61
2023/01/06 05:19:48;;;;;;;1.55;1.45;;;;;;;;;;5074126;28;20028;-61
2023/01/06 05:22:14;;;;;;;1.90;1.70;;;;;;;;;;5074267;28;20021;-62
2023/01/06 05:24:39;;;;;;;2.58;1.45;;;;;;;;;;5073889;28;20028;-63
2023/01/06 05:27:06;;;;;;;1.90;1.70;;;;;;;;;;5074080;28;20021;-62
2023/01/06 05:29:32;;;;;;;2.10;1.60;;;;;;;;;;5073820;28;20028;-61
2023/01/06 05:31:58;;;;;;;1.50;1.40;;;;;;;;;;5072618;28;20035;-61
2023/01/06 05:34:23;;;;;;;2.13;1.70;;;;;;;;;;5073983;28;20021;-61
2023/01/06 05:36:49;;;;;;;2.50;1.55;;;;;;;;;;5073573;28;20427;-61
2023/01/06 05:39:14;;;;;;;2.20;1.70;;;;;;;;;;5073391;28;20025;-61
2023/01/06 05:41:40;;;;;;;1.52;1.42;;;;;;;;;;5072695;28;20066;-63
2023/01/06 05:44:05;;;;;;;1.85;1.75;;;;;;;;;;5071729;28;20071;-62
2023/01/06 05:46:31;;;;;;;2.53;1.70;;;;;;;;;;5072198;28;20013;-61
2023/01/06 05:48:59;;;;;;;2.17;1.80;;;;;;;;;;5072020;28;20256;-62
2023/01/06 05:51:24;;;;;;;1.67;1.58;;;;;;;;;;5072140;28;20024;-62
2023/01/06 05:53:50;;;;;;;2.13;1.73;;;;;;;;;;5072205;28;20349;-61
2023/01/06 05:56:18;;;;;;;1.60;1.50;;;;;;;;;;5071898;28;20020;-61
2023/01/06 05:58:49;;;;;;;1.70;1.55;;;;;;;;;;5072861;28;20028;-61
2023/01/06 06:01:26;;;;;;;1.75;1.65;;;;;;;;;;5073493;28;20021;-61
2023/01/06 06:03:52;;;;;;;1.77;1.67;;;;;;;;;;5073392;28;20028;-61
2023/01/06 06:06:19;;;;;;;1.92;1.52;;;;;;;;;;5073659;28;20426;-62
2023/01/06 06:08:45;;;;;;;1.95;1.40;;;;;;;;;;5073237;28;20027;-62
2023/01/06 06:11:12;;;;;;;1.80;1.60;;;;;;;;;;5073226;28;20395;-62
2023/01/06 06:13:43;;;;;;;1.88;1.67;;;;;;;;;;5073228;28;20016;-61
2023/01/06 06:16:11;;;;;;;1.58;1.48;;;;;;;;;;5073520;28;20107;-61
2023/01/06 06:18:41;;;;;;;1.88;1.58;;;;;;;;;;5073186;28;20460;-61
2023/01/06 06:21:12;;;;;;;3.15;1.85;;;;;;;;;;5073153;28;20051;-61
2023/01/06 06:23:38;;;;;;;2.20;1.70;;;;;;;;;;5073087;28;20055;-62
2023/01/06 06:26:03;;;;;;;1.73;1.50;;;;;;;;;;5055089;28;20036;-61
2023/01/06 06:28:30;;;;;;;2.10;1.67;;;;;;;;;;5072925;28;20032;-61
2023/01/06 06:31:05;;;;;;;3.03;1.70;;;;;;;;;;5072943;28;20021;-61
2023/01/06 06:33:31;;;;;;;1.63;1.52;;;;;;;;;;5072883;28;20503;-62
2023/01/06 06:35:58;;;;;;;2.33;1.50;;;;;;;;;;5072825;28;20075;-62
2023/01/06 06:38:23;;;;;;;1.92;1.48;;;;;;;;;;5072660;28;20502;-62
2023/01/06 06:40:49;;;;;;;2.58;1.70;;;;;;;;;;5073069;28;20064;-62
2023/01/06 06:43:15;;;;;;;1.90;1.70;;;;;;;;;;5072081;28;20092;-61
2023/01/06 06:45:43;;;;;;;2.55;1.90;;;;;;;;;;5072699;28;20021;-62
2023/01/06 06:48:09;;;;;;;1.60;1.50;;;;;;;;;;5072509;28;20095;-62
2023/01/06 06:50:34;;;;;;;1.60;1.50;;;;;;;;;;5072710;28;20017;-61
2023/01/06 06:53:00;;;;;;;2.53;1.67;;;;;;;;;;5072671;28;20024;-62
2023/01/06 06:55:25;;;;;;;1.38;1.25;;;;;;;;;;5072580;28;20025;-62
2023/01/06 06:57:51;;;;;;;1.60;1.50;;;;;;;;;;5072387;28;20039;-62
2023/01/06 07:00:16;;;;;;;1.60;1.50;;;;;;;;;;5072615;28;20027;-63
2023/01/06 07:02:43;;;;;;;2.63;1.40;;;;;;;;;;5072448;28;20017;-61
2023/01/06 07:05:08;;;;;;;3.97;1.70;;;;;;;;;;5072366;28;20028;-61
2023/01/06 07:07:34;;;;;;;1.67;1.58;;;;;;;;;;5072723;28;20028;-62
2023/01/06 07:09:59;;;;;;;3.28;1.90;;;;;;;;;;5072666;28;20090;-62
2023/01/06 07:12:25;;;;;;;1.88;1.67;;;;;;;;;;5072271;28;20055;-61
2023/01/06 07:14:50;;;;;;;1.80;1.48;;;;;;;;;;5072317;28;20020;-62
2023/01/06 07:17:16;;;;;;;1.70;1.60;;;;;;;;;;5072240;28;20029;-62
2023/01/06 07:19:41;;;;;;;1.70;1.60;;;;;;;;;;5054341;28;20028;-62
2023/01/06 07:22:07;;;;;;;1.60;1.50;;;;;;;;;;5072879;28;20460;-62
2023/01/06 07:24:32;;;;;;;2.10;1.55;;;;;;;;;;5072247;28;20450;-61
2023/01/06 07:26:58;;;;;;;2.33;1.67;;;;;;;;;;5067957;28;20033;-62
2023/01/06 07:29:24;;;;;;;4.03;1.73;;;;;;;;;;5082929;28;20025;-62
2023/01/06 07:31:49;;;;;;;2.60;1.67;;;;;;;;;;5059348;28;20029;-63
2023/01/06 07:34:15;;;;;;;1.88;1.40;;;;;;;;;;5063426;28;20040;-63
2023/01/06 07:36:40;;;;;;;2.15;1.70;;;;;;;;;;5071017;28;20033;-63
2023/01/06 07:39:06;;;;;;;1.88;1.67;;;;;;;;;;5085378;28;20021;-63
2023/01/06 07:41:31;;;;;;;1.70;1.60;;;;;;;;;;5070958;28;20033;-62
2023/01/06 07:43:57;;;;;;;2.15;1.50;;;;;;;;;;5070784;28;20044;-63
2023/01/06 07:46:23;;;;;;;1.67;1.50;;;;;;;;;;5070790;28;20115;-63
2023/01/06 07:48:48;;;;;;;2.45;1.90;;;;;;;;;;5070924;28;20024;-63
2023/01/06 07:51:14;;;;;;;1.65;1.52;;;;;;;;;;5052833;28;20021;-63
2023/01/06 07:53:39;;;;;;;2.17;1.70;;;;;;;;;;5066699;28;20028;-63
2023/01/06 07:56:05;;;;;;;1.40;1.30;;;;;;;;;;5053037;28;20028;-64
2023/01/06 07:58:31;;;;;;;2.03;1.65;;;;;;;;;;5075797;28;20075;-64
2023/01/06 08:00:57;;;;;;;1.70;1.60;;;;;;;;;;5057828;28;20028;-64
2023/01/06 08:03:22;;;;;;;1.48;1.38;;;;;;;;;;5074474;28;20021;-65
2023/01/06 08:05:48;;;;;;;1.65;1.55;;;;;;;;;;5074142;28;20514;-64
2023/01/06 08:08:14;;;;;;;2.95;1.90;;;;;;;;;;5075574;28;20487;-64
2023/01/06 08:10:41;;;;;;;1.67;1.50;;;;;;;;;;5075781;28;20062;-64
2023/01/06 08:13:07;;;;;;;2.05;1.65;;;;;;;;;;5075614;28;20030;-63
2023/01/06 08:15:34;;;;;;;1.67;1.45;;;;;;;;;;5075703;28;20031;-64
2023/01/06 08:18:00;;;;;;;2.03;1.63;;;;;;;;;;5075430;28;20032;-64
2023/01/06 08:20:25;;;;;;;2.40;1.60;;;;;;;;;;5075353;28;20461;-64
2023/01/06 08:22:51;;;;;;;1.70;1.60;;;;;;;;;;5075496;28;20182;-64
2023/01/06 08:25:16;;;;;;;1.80;1.38;;;;;;;;;;5075536;28;20519;-64
2023/01/06 08:27:42;;;;;;;1.60;1.50;;;;;;;;;;5075281;28;20404;-65
2023/01/06 08:30:08;;;;;;;1.63;1.52;;;;;;;;;;5075073;28;20065;-66
2023/01/06 08:32:34;;;;;;;1.73;1.63;;;;;;;;;;5075495;28;20035;-64
2023/01/06 08:34:59;;;;;;;2.40;1.70;;;;;;;;;;5075152;28;20429;-64
2023/01/06 08:37:25;;;;;;;1.75;1.40;;;;;;;;;;5072330;28;20527;-64
2023/01/06 08:39:50;;;;;;;2.20;1.60;;;;;;;;;;5075063;28;20035;-64
2023/01/06 08:42:17;;;;;;;1.50;1.40;;;;;;;;;;5074848;28;20056;-66
2023/01/06 08:44:43;;;;;;;1.70;1.42;;;;;;;;;;5074889;28;20423;-66
2023/01/06 08:47:09;;;;;;;1.55;1.40;;;;;;;;;;5074746;28;20392;-64
2023/01/06 08:49:37;;;;;;;1.83;1.42;;;;;;;;;;5074862;28;20031;-65
2023/01/06 08:52:03;;;;;;;1.83;1.60;;;;;;;;;;5074707;28;20115;-66
2023/01/06 08:54:29;;;;;;;1.70;1.60;;;;;;;;;;5073690;28;20112;-66
2023/01/06 08:56:55;;;;;;;1.45;1.35;;;;;;;;;;5074851;28;20028;-66
2023/01/06 08:59:21;;;;;;;1.80;1.50;;;;;;;;;;5074856;28;20044;-64
2023/01/06 09:01:49;;;;;;;2.80;1.55;;;;;;;;;;5056816;28;20464;-66
2023/01/06 09:04:15;;;;;;;1.77;1.45;;;;;;;;;;5074692;28;20039;-64
2023/01/06 09:06:43;;;;;;;1.63;1.50;;;;;;;;;;5074185;28;20408;-65
2023/01/06 09:09:12;;;;;;;1.58;1.48;;;;;;;;;;5074673;28;20024;-65
2023/01/06 09:11:42;;;;;;;1.80;1.70;;;;;;;;;;5074385;28;20025;-65
2023/01/06 09:14:09;;;;;;;1.98;1.70;;;;;;;;;;5071399;28;20511;-65
2023/01/06 09:16:34;;;;;;;3.05;1.75;;;;;;;;;;5073472;28;20028;-66
2023/01/06 09:19:00;;;;;;;1.73;1.50;;;;;;;;;;5073003;28;20392;-65
2023/01/06 09:21:25;;;;;;;1.50;1.35;;;;;;;;;;5073668;28;20737;-67
2023/01/06 09:23:51;;;;;;;1.65;1.52;;;;;;;;;;5073314;28;20039;-65
2023/01/06 09:26:20;;;;;;;2.08;1.70;;;;;;;;;;5072131;28;20054;-64
2023/01/06 09:28:46;;;;;;;1.85;1.42;;;;;;;;;;5073069;28;20020;-63
2023/01/06 09:31:12;;;;;;;3.25;1.70;;;;;;;;;;5073342;28;20404;-64
2023/01/06 09:33:38;;;;;;;1.90;1.50;;;;;;;;;;5074033;28;20032;-64
2023/01/06 09:36:04;;;;;;;1.55;1.45;;;;;;;;;;5073821;28;20103;-64
2023/01/06 09:38:30;;;;;;;2.45;1.45;;;;;;;;;;5072092;28;20033;-67
2023/01/06 09:41:04;;;;;;;2.33;1.60;;;;;;;;;;5072641;28;20104;-67
2023/01/06 09:43:36;;;;;;;2.17;1.80;;;;;;;;;;5070828;28;20115;-64
2023/01/06 09:46:03;;;;;;;1.50;1.40;;;;;;;;;;5070026;28;20029;-64
2023/01/06 09:48:50;;;;;;;1.52;1.42;;;;;;;;;;5072417;28;20048;-62
2023/01/06 09:51:20;;;;;;;2.17;1.52;;;;;;;;;;5055773;28;20441;-62
2023/01/06 09:53:51;;;;;;;;;;;;;;;;;;5074145;28;20103;-64
2023/01/06 09:56:18;;;;;;;1.73;1.63;;;;;;;;;;5073459;28;19958;-63
2023/01/06 09:58:56;;;;;;;2.38;2.13;;;;;;;;;;5073472;28;20033;-67
2023/01/06 10:01:32;;;;;;;5.20;2.15;;;;;;;;;;5073540;28;20050;-63
2023/01/06 10:03:59;;;;;;;3.40;3.08;;;;;;;;;;5072314;28;20277;-67
2023/01/06 10:06:52;;;;;;;1.98;1.80;;;;;;;;;;5073318;28;20025;-64
2023/01/06 10:09:35;;;;;;;1.65;1.55;;;;;;;;;;5073558;28;20047;-64
2023/01/06 10:12:07;;;;;;;1.83;1.60;;;;;;;;;;5073244;28;20518;-63
2023/01/06 10:14:50;;;;;;;1.77;1.60;;;;;;;;;;5073360;28;20032;-63
2023/01/06 10:17:37;;;;;;;2.45;1.50;;;;;;;;;;5071646;28;20476;-62
2023/01/06 10:20:41;;;;;;;1.92;1.60;;;;;;;;;;5073531;28;20025;-63
2023/01/06 10:23:15;;;;;;;1.60;1.50;;;;;;;;;;5072976;28;20056;-64
2023/01/06 10:25:48;;;;;;;1.80;1.70;;;;;;;;;;5072976;28;20028;-64
2023/01/06 10:28:16;;;;;;;1.63;1.52;;;;;;;;;;5073121;28;20089;-64
2023/01/06 10:30:49;;;;;;;2.10;1.80;;;;;;;;;;5073020;28;20496;-64
2023/01/06 10:33:27;;;;;;;1.80;1.70;;;;;;;;;;5072926;28;20036;-64
2023/01/06 10:35:54;;;;;;;2.47;1.80;;;;;;;;;;5055104;28;20417;-64
2023/01/06 10:38:32;;;;;;;1.83;1.73;;;;;;;;;;5073004;28;20368;-66
2023/01/06 10:41:12;;;;;;;2.42;1.80;;;;;;;;;;5072742;28;20056;-64
2023/01/06 10:43:37;;;;;;;1.67;1.58;;;;;;;;;;5051339;28;20527;-64
2023/01/06 10:46:03;;;;;;;2.92;1.80;;;;;;;;;;5052741;28;20063;-63
2023/01/06 10:48:31;;;;;;;2.47;1.80;;;;;;;;;;5052697;28;20025;-65
2023/01/06 10:50:56;;;;;;;1.83;1.70;;;;;;;;;;5052751;28;20017;-64
2023/01/06 10:53:22;;;;;;;1.73;1.63;;;;;;;;;;5052622;28;20090;-64
2023/01/06 10:55:53;;;;;;;2.10;1.75;;;;;;;;;;5052647;28;20017;-65
2023/01/06 10:58:51;;;;;;;1.70;1.60;;;;;;;;;;5052724;28;20032;-64
2023/01/06 11:01:23;;;;;;;1.75;1.65;;;;;;;;;;5052512;28;20029;-65
2023/01/06 11:04:11;;;;;;;1.60;1.50;;;;;;;;;;5052561;28;20021;-65
2023/01/06 11:06:47;;;;;;;2.00;1.80;;;;;;;;;;5052406;28;20472;-64
2023/01/06 11:09:33;;;;;;;1.75;1.58;;;;;;;;;;5052476;28;20033;-63
2023/01/06 11:12:07;;;;;;;1.83;1.52;;;;;;;;;;5052417;28;20017;-66
2023/01/06 11:14:34;;;;;;;1.75;1.60;;;;;;;;;;5043219;28;20115;-67
2023/01/06 11:17:02;;;;;;;2.25;1.80;;;;;;;;;;5048912;28;20090;-63
2023/01/06 11:19:35;;;;;;;1.70;1.60;;;;;;;;;;5049699;28;20028;-64
2023/01/06 11:22:01;;;;;;;2.33;1.70;;;;;;;;;;5049233;28;20017;-68
2023/01/06 11:24:28;;;;;;;2.15;1.80;;;;;;;;;;5049882;28;20079;-64
2023/01/06 11:27:16;;;;;;;2.08;1.77;;;;;;;;;;5050780;28;20028;-64
2023/01/06 11:29:41;;;;;;;2.30;1.92;;;;;;;;;;5051324;28;20451;-65
2023/01/06 11:32:18;;;;;;;1.92;1.55;;;;;;;;;;5054320;28;20025;-65
2023/01/06 11:35:05;;;;;;;1.75;1.65;;;;;;;;;;5054802;28;20045;-64
2023/01/06 11:37:37;;;;;;;1.70;1.60;;;;;;;;;;5054718;28;20487;-64
2023/01/06 11:40:15;;;;;;;2.72;2.00;;;;;;;;;;5054786;28;20037;-64
2023/01/06 11:42:41;;;;;;;2.30;2.00;;;;;;;;;;5062579;28;20131;-65
2023/01/06 11:45:27;;;;;;;1.80;1.70;;;;;;;;;;5074975;28;20128;-65
2023/01/06 11:47:53;;;;;;;1.98;1.77;;;;;;;;;;5074834;28;20567;-67
2023/01/06 11:50:19;;;;;;;3.00;1.70;;;;;;;;;;5074800;28;20035;-65
2023/01/06 11:53:01;;;;;;;1.77;1.63;;;;;;;;;;5074413;28;20099;-64
2023/01/06 11:55:27;;;;;;;1.90;1.70;;;;;;;;;;5074429;28;20055;-67
2023/01/06 11:58:04;;;;;;;2.97;1.58;;;;;;;;;;5074185;28;20033;-65
2023/01/06 12:00:43;;;;;;;2.05;1.70;;;;;;;;;;5074704;28;20020;-64
2023/01/06 12:03:18;;;;;;;2.38;1.90;;;;;;;;;;5074240;28;20020;-64
2023/01/06 12:05:57;;;;;;;1.77;1.50;;;;;;;;;;5056183;28;20067;-65
2023/01/06 12:08:32;;;;;;;2.17;1.80;;;;;;;;;;5074239;28;20021;-64
2023/01/06 12:11:12;;;;;;;1.70;1.60;;;;;;;;;;5072642;28;20384;-64
2023/01/06 12:13:38;;;;;;;1.80;1.70;;;;;;;;;;5074356;28;20024;-64
2023/01/06 12:16:14;;;;;;;2.25;1.63;;;;;;;;;;5072741;28;20032;-65
2023/01/06 12:18:41;;;;;;;1.75;1.63;;;;;;;;;;5055806;28;20422;-64
2023/01/06 12:21:14;;;;;;;1.88;1.70;;;;;;;;;;5073925;28;20464;-66
2023/01/06 12:23:43;;;;;;;1.73;1.55;;;;;;;;;;5073868;28;20036;-64
2023/01/06 12:26:21;;;;;;;1.67;1.58;;;;;;;;;;5073707;28;20032;-65
2023/01/06 12:28:49;;;;;;;1.95;1.70;;;;;;;;;;5073760;28;20780;-65
2023/01/06 12:31:26;;;;;;;2.20;1.73;;;;;;;;;;5073894;28;20056;-66
2023/01/06 12:34:28;;;;;;;2.50;1.83;;;;;;;;;;5073718;28;20035;-65
2023/01/06 12:37:02;;;;;;;1.95;1.65;;;;;;;;;;5069974;28;20041;-65
2023/01/06 12:40:00;;;;;;;1.75;1.58;;;;;;;;;;5073449;28;20052;-64
2023/01/06 12:42:38;;;;;;;2.30;1.60;;;;;;;;;;5040031;28;20067;-65
2023/01/06 12:45:11;;;;;;;2.10;1.80;;;;;;;;;;5071486;28;20050;-65
2023/01/06 12:47:45;;;;;;;1.70;1.60;;;;;;;;;;5069701;28;20040;-65
2023/01/06 12:50:24;;;;;;;2.08;1.85;;;;;;;;;;5073182;28;20067;-64
2023/01/06 12:53:09;;;;;;;1.95;1.60;;;;;;;;;;5073288;28;20024;-65
2023/01/06 12:56:05;;;;;;;2.22;1.60;;;;;;;;;;5073292;28;20025;-65
2023/01/06 12:58:47;;;;;;;2.22;1.83;;;;;;;;;;5073268;28;20036;-66
2023/01/06 13:01:23;;;;;;;1.95;1.50;;;;;;;;;;5064941;28;20021;-64
2023/01/06 13:04:16;;;;;;;2.53;2.33;;;;;;;;;;5081361;28;20195;-64
2023/01/06 13:06:45;;;;;;;2.72;1.90;;;;;;;;;;5072188;28;20457;-64
2023/01/06 13:09:24;;;;;;;2.80;2.10;;;;;;;;;;5072838;28;20055;-63
2023/01/06 13:12:10;;;;;;;2.55;2.00;;;;;;;;;;5072997;28;20036;-63
2023/01/06 13:14:44;;;;;;;2.10;1.90;;;;;;;;;;5072264;28;20067;-64
2023/01/06 13:17:16;;;;;;;2.25;1.92;;;;;;;;;;5071456;28;20033;-63
2023/01/06 13:19:50;;;;;;;2.33;1.70;;;;;;;;;;5072850;28;20074;-63
2023/01/06 13:22:22;;;;;;;2.03;1.65;;;;;;;;;;5072686;28;20112;-63
2023/01/06 13:25:06;;;;;;;3.17;1.85;;;;;;;;;;5072633;28;20024;-63
2023/01/06 13:27:37;;;;;;;1.60;1.50;;;;;;;;;;5072679;28;20036;-62
2023/01/06 13:30:40;;;;;;;1.88;1.67;;;;;;;;;;5072526;28;20020;-65
2023/01/06 13:33:11;;;;;;;2.00;1.83;;;;;;;;;;5072461;28;20107;-63
2023/01/06 13:35:49;;;;;;;1.80;1.70;;;;;;;;;;5072686;28;20025;-63
2023/01/06 13:38:49;;;;;;;2.13;1.73;;;;;;;;;;5072292;28;20468;-63
2023/01/06 13:41:18;;;;;;;2.43;1.90;;;;;;;;;;5072365;28;20435;-62
2023/01/06 13:43:47;;;;;;;2.63;2.03;;;;;;;;;;5072038;28;20294;-63
2023/01/06 13:46:16;;;;;;;2.30;2.10;;;;;;;;;;5071237;28;20086;-64
2023/01/06 13:48:49;;;;;;;2.83;1.70;;;;;;;;;;5072305;28;20048;-65
2023/01/06 13:51:18;;;;;;;1.77;1.67;;;;;;;;;;5034591;28;20563;-65
2023/01/06 13:53:45;;;;;;;2.33;2.13;;;;;;;;;;5033224;28;20037;-63
2023/01/06 13:56:13;;;;;;;2.17;2.00;;;;;;;;;;5051994;28;20052;-64
2023/01/06 13:58:47;;;;;;;2.25;2.05;;;;;;;;;;5051959;28;20036;-64
2023/01/06 14:01:18;;;;;;;2.30;1.92;;;;;;;;;;5051875;28;20029;-64
2023/01/06 14:03:46;;;;;;;1.92;1.70;;;;;;;;;;5051917;28;20044;-64
2023/01/06 14:06:20;;;;;;;2.53;2.13;;;;;;;;;;5034395;28;20388;-64
2023/01/06 14:08:57;;;;;;;2.67;2.00;;;;;;;;;;5051909;28;20037;-64
2023/01/06 14:11:37;;;;;;;3.35;2.30;;;;;;;;;;5051743;28;20113;-64
2023/01/06 14:14:05;;;;;;;1.98;1.85;;;;;;;;;;5051826;28;20468;-64
2023/01/06 14:16:48;;;;;;;2.20;2.00;;;;;;;;;;5051898;28;20519;-64
2023/01/06 14:19:19;;;;;;;2.10;1.90;;;;;;;;;;5051668;28;20033;-64
2023/01/06 14:21:47;;;;;;;2.60;2.15;;;;;;;;;;5055371;28;20084;-63
2023/01/06 14:24:31;;;;;;;2.13;1.92;;;;;;;;;;5071547;28;20100;-63
2023/01/06 14:27:10;;;;;;;2.60;1.90;;;;;;;;;;5053565;28;20025;-64
2023/01/06 14:29:39;;;;;;;2.20;2.00;;;;;;;;;;5071383;28;20040;-63
2023/01/06 14:32:11;;;;;;;1.90;1.80;;;;;;;;;;5071211;28;20024;-63
2023/01/06 14:34:54;;;;;;;2.20;2.00;;;;;;;;;;5071599;28;20472;-63
2023/01/06 14:37:24;;;;;;;2.20;2.00;;;;;;;;;;5071319;28;20036;-63
2023/01/06 14:39:54;;;;;;;2.28;1.90;;;;;;;;;;5071239;28;20028;-65
2023/01/06 14:42:33;;;;;;;1.90;1.80;;;;;;;;;;5069752;28;20044;-64
2023/01/06 14:45:15;;;;;;;2.17;1.73;;;;;;;;;;5071300;28;20036;-64
2023/01/06 14:47:47;;;;;;;2.28;1.90;;;;;;;;;;5071427;28;20467;-63
2023/01/06 14:50:18;;;;;;;2.35;1.98;;;;;;;;;;5071429;28;20021;-64
2023/01/06 14:52:55;;;;;;;2.05;1.75;;;;;;;;;;5071216;28;20048;-64
2023/01/06 14:55:23;;;;;;;1.83;1.70;;;;;;;;;;5071053;28;20035;-64
2023/01/06 14:57:48;;;;;;;2.80;1.95;;;;;;;;;;5071220;28;20090;-63
2023/01/06 15:00:25;;;;;;;2.33;2.00;;;;;;;;;;5071051;28;20520;-64
2023/01/06 15:02:56;;;;;;;2.15;1.95;;;;;;;;;;5071158;28;20103;-63
2023/01/06 15:05:25;;;;;;;2.47;2.28;;;;;;;;;;5070789;28;20020;-62
2023/01/06 15:08:16;;;;;;;2.08;1.90;;;;;;;;;;5070874;28;20024;-64
2023/01/06 15:10:48;;;;;;;3.22;2.00;;;;;;;;;;5061507;28;20036;-63
2023/01/06 15:13:20;;;;;;;3.08;2.40;;;;;;;;;;5070953;28;20033;-63